createdAt,value
2022-12-04T00:00:26.711Z,68.90
2022-12-04T00:03:06.722Z,69.34
2022-12-04T00:05:39.909Z,69.16
2022-12-04T00:08:06.688Z,69.25
2022-12-04T00:10:49.673Z,69.29
2022-12-04T00:13:23.101Z,69.22
2022-12-04T00:26:15.620Z,69.31
2022-12-04T00:28:55.681Z,69.42
2022-12-04T00:31:30.945Z,69.55
2022-12-04T00:34:08.052Z,69.69
2022-12-04T00:36:44.436Z,69.65
2022-12-04T00:39:17.678Z,69.82
2022-12-04T00:41:52.800Z,70.07
2022-12-04T00:54:40.632Z,69.51
2022-12-04T00:57:15.677Z,69.41
2022-12-04T00:59:49.120Z,69.42
2022-12-04T01:02:22.687Z,69.60
2022-12-04T01:04:55.749Z,69.69
2022-12-04T01:07:35.715Z,69.51
2022-12-04T01:20:55.706Z,69.90
2022-12-04T01:23:28.836Z,70.22
2022-12-04T01:26:04.728Z,70.27
2022-12-04T01:28:38.702Z,70.59
2022-12-04T01:31:15.695Z,70.44
2022-12-04T01:47:52.624Z,71.14
2022-12-04T01:50:32.676Z,70.89
2022-12-04T01:53:06.556Z,70.90
2022-12-04T01:55:40.659Z,71.03
2022-12-04T01:58:17.224Z,70.83
2022-12-04T02:01:08.138Z,70.70
2022-12-04T02:14:34.661Z,70.30
2022-12-04T02:17:21.602Z,70.21
2022-12-04T02:20:21.632Z,70.35
2022-12-04T02:23:22.834Z,70.17
2022-12-04T02:26:21.380Z,70.42
2022-12-04T02:40:00.699Z,70.15
2022-12-04T02:42:41.376Z,70.08
2022-12-04T02:45:29.750Z,70.16
2022-12-04T02:48:07.304Z,69.87
2022-12-04T02:50:47.656Z,70.12
2022-12-04T03:07:17.593Z,70.19
2022-12-04T03:10:03.632Z,70.13
2022-12-04T03:12:42.903Z,70.18
2022-12-04T03:15:28.634Z,70.30
2022-12-04T03:18:10.788Z,70.08
2022-12-04T03:20:56.644Z,69.92
2022-12-04T03:34:13.607Z,70.03
2022-12-04T03:36:53.183Z,69.99
2022-12-04T03:39:42.630Z,70.06
2022-12-04T03:42:24.504Z,70.11
2022-12-04T03:45:10.638Z,70.35
2022-12-04T03:47:54.812Z,70.19
2022-12-04T04:00:57.583Z,70.59
2022-12-04T04:03:44.613Z,70.42
2022-12-04T04:06:26.424Z,70.59
2022-12-04T04:09:15.620Z,70.28
2022-12-04T04:11:56.388Z,70.15
2022-12-04T04:28:38.893Z,69.69
2022-12-04T04:31:23.142Z,69.62
2022-12-04T04:34:19.622Z,69.85
2022-12-04T04:37:05.960Z,70.20
2022-12-04T04:40:00.649Z,70.04
2022-12-04T04:42:43.097Z,69.93
2022-12-04T04:53:00.578Z,69.84
2022-12-04T04:55:36.550Z,69.66
2022-12-04T04:58:14.641Z,69.50
2022-12-04T05:00:57.718Z,69.49
2022-12-04T05:03:38.600Z,69.31
2022-12-04T05:06:12.508Z,69.77
2022-12-04T05:19:46.592Z,69.62
2022-12-04T05:22:32.607Z,69.56
2022-12-04T05:25:07.032Z,69.59
2022-12-04T05:27:40.703Z,69.50
2022-12-04T05:30:17.645Z,69.69
2022-12-04T05:32:58.346Z,69.56
2022-12-04T05:46:40.702Z,69.52
2022-12-04T05:49:13.844Z,69.63
2022-12-04T05:51:40.523Z,69.85
2022-12-04T05:54:20.601Z,69.39
2022-12-04T05:56:53.868Z,69.45
2022-12-04T05:59:20.576Z,69.84
2022-12-04T06:02:02.763Z,69.73
2022-12-04T06:15:16.590Z,70.08
2022-12-04T06:17:51.917Z,69.83
2022-12-04T06:20:25.654Z,69.67
2022-12-04T06:22:59.069Z,69.73
2022-12-04T06:25:32.592Z,69.83
2022-12-04T06:28:05.856Z,69.69
2022-12-04T06:40:55.626Z,69.76
2022-12-04T06:43:35.606Z,69.66
2022-12-04T06:46:12.153Z,69.63
2022-12-04T06:48:53.600Z,69.63
2022-12-04T06:51:30.866Z,69.62
2022-12-04T07:07:52.625Z,69.56
2022-12-04T07:10:25.801Z,69.67
2022-12-04T07:12:52.478Z,69.80
2022-12-04T07:15:32.653Z,69.60
2022-12-04T07:18:05.980Z,69.52
2022-12-04T07:20:39.600Z,69.60
2022-12-04T07:23:14.757Z,69.47
2022-12-04T07:36:03.568Z,69.70
2022-12-04T07:38:46.818Z,69.68
2022-12-04T07:41:19.893Z,69.76
2022-12-04T07:43:53.588Z,69.73
2022-12-04T07:46:28.095Z,69.63
2022-12-04T08:02:43.573Z,69.39
2022-12-04T08:05:17.745Z,69.44
2022-12-04T08:07:50.590Z,69.27
2022-12-04T08:10:23.898Z,69.63
2022-12-04T08:12:57.565Z,69.46
2022-12-04T08:29:39.403Z,69.70
2022-12-04T08:32:19.557Z,69.97
2022-12-04T08:34:55.931Z,69.74
2022-12-04T08:37:36.571Z,69.91
2022-12-04T08:40:12.140Z,69.74
2022-12-04T08:42:46.630Z,70.05
2022-12-04T08:55:58.587Z,69.94
2022-12-04T08:58:31.968Z,69.68
2022-12-04T09:01:11.722Z,69.70
2022-12-04T09:03:44.916Z,69.56
2022-12-04T09:06:22.608Z,69.68
2022-12-04T09:23:04.419Z,69.52
2022-12-04T09:25:45.543Z,69.95
2022-12-04T09:28:18.877Z,69.71
2022-12-04T09:30:52.678Z,69.77
2022-12-04T09:33:33.047Z,70.12
2022-12-04T09:36:14.576Z,70.01
2022-12-04T09:49:33.622Z,70.04
2022-12-04T09:52:22.212Z,69.77
2022-12-04T09:55:03.557Z,69.43
2022-12-04T09:57:44.599Z,69.62
2022-12-04T10:00:27.552Z,69.88
2022-12-04T10:03:04.462Z,70.05
2022-12-04T10:16:14.680Z,69.53
2022-12-04T10:19:05.564Z,69.68
2022-12-04T10:21:58.569Z,69.39
2022-12-04T10:24:50.537Z,69.26
2022-12-04T10:27:31.033Z,69.45
2022-12-04T10:40:59.515Z,69.67
2022-12-04T10:43:49.595Z,69.33
2022-12-04T10:46:27.509Z,69.67
2022-12-04T10:49:12.541Z,69.39
2022-12-04T10:51:46.909Z,69.41
2022-12-04T10:54:28.546Z,69.58
2022-12-04T10:57:06.548Z,69.60
2022-12-04T11:10:04.541Z,69.46
2022-12-04T11:12:46.639Z,69.38
2022-12-04T11:15:20.120Z,69.80
2022-12-04T11:17:53.565Z,69.73
2022-12-04T11:20:27.797Z,69.61
2022-12-04T11:23:04.586Z,69.91
2022-12-04T11:36:28.515Z,70.11
2022-12-04T11:39:16.551Z,70.69
2022-12-04T11:42:08.593Z,71.11
2022-12-04T11:44:52.895Z,71.55
2022-12-04T11:47:35.256Z,71.67
2022-12-04T12:01:15.517Z,72.18
2022-12-04T12:04:21.715Z,71.91
2022-12-04T12:07:21.532Z,71.94
2022-12-04T12:10:04.271Z,72.04
2022-12-04T12:13:03.521Z,71.98
2022-12-04T12:15:54.131Z,71.95
2022-12-04T12:29:15.512Z,71.61
2022-12-04T12:32:20.569Z,72.03
2022-12-04T12:34:55.956Z,72.06
2022-12-04T12:37:38.553Z,72.31
2022-12-04T12:40:26.011Z,72.43
2022-12-04T12:43:12.619Z,72.31
2022-12-04T12:56:47.931Z,72.05
2022-12-04T12:59:27.064Z,71.85
2022-12-04T13:02:24.564Z,71.79
2022-12-04T13:05:04.537Z,71.73
2022-12-04T13:07:59.589Z,71.94
2022-12-04T13:21:35.564Z,72.22
2022-12-04T13:24:47.924Z,72.97
2022-12-04T13:27:43.543Z,72.75
2022-12-04T13:30:22.018Z,73.47
2022-12-04T13:33:38.492Z,73.19
2022-12-04T13:36:59.785Z,73.37
2022-12-04T13:49:54.484Z,73.54
2022-12-04T13:52:49.251Z,73.50
2022-12-04T13:55:27.242Z,73.52
2022-12-04T13:58:28.492Z,73.53
2022-12-04T14:01:06.116Z,73.50
2022-12-04T14:14:57.700Z,73.40
2022-12-04T14:17:42.484Z,73.33
2022-12-04T14:20:27.254Z,72.96
2022-12-04T14:23:29.521Z,72.90
2022-12-04T14:26:03.082Z,72.53
2022-12-04T14:41:45.496Z,72.01
2022-12-04T14:44:27.993Z,71.76
2022-12-04T14:47:36.496Z,71.70
2022-12-04T14:50:34.375Z,71.79
2022-12-04T14:53:32.775Z,71.67
2022-12-04T14:56:53.936Z,71.17
2022-12-04T15:09:58.456Z,71.26
2022-12-04T15:12:38.489Z,71.37
2022-12-04T15:15:16.416Z,71.41
2022-12-04T15:18:06.468Z,71.35
2022-12-04T15:20:53.674Z,71.34
2022-12-04T15:23:40.509Z,71.26
2022-12-04T15:36:57.480Z,71.14
2022-12-04T15:39:34.773Z,71.15
2022-12-04T15:42:26.477Z,71.18
2022-12-04T15:45:02.859Z,71.19
2022-12-04T15:47:39.489Z,71.00
2022-12-04T16:04:26.467Z,71.08
2022-12-04T16:07:06.476Z,71.18
2022-12-04T16:09:57.975Z,71.10
2022-12-04T16:12:41.473Z,71.03
2022-12-04T16:15:14.759Z,71.12
2022-12-04T16:17:48.492Z,71.25
2022-12-04T16:31:00.573Z,71.26
2022-12-04T16:33:33.757Z,71.03
2022-12-04T16:36:00.423Z,71.06
2022-12-04T16:38:40.474Z,71.19
2022-12-04T16:41:15.931Z,71.27
2022-12-04T16:43:49.481Z,71.22
2022-12-04T16:57:09.045Z,71.16
2022-12-04T16:59:42.675Z,71.07
2022-12-04T17:02:24.476Z,71.01
2022-12-04T17:04:58.316Z,71.01
2022-12-04T17:07:31.601Z,71.09
2022-12-04T17:24:08.439Z,70.99
2022-12-04T17:26:48.443Z,71.01
2022-12-04T17:29:21.664Z,71.00
2022-12-04T17:31:48.415Z,71.08
2022-12-04T17:34:28.470Z,70.97
2022-12-04T17:37:01.741Z,71.19
2022-12-04T17:49:51.443Z,72.15
2022-12-04T17:52:31.467Z,72.73
2022-12-04T17:55:08.339Z,72.44
2022-12-04T17:57:50.712Z,72.44
2022-12-04T18:00:23.689Z,72.28
2022-12-04T18:02:53.360Z,71.94
2022-12-04T18:15:57.517Z,71.64
2022-12-04T18:18:37.442Z,71.72
2022-12-04T18:21:12.036Z,71.68
2022-12-04T18:23:47.443Z,71.72
2022-12-04T18:26:25.505Z,71.56
2022-12-04T18:42:50.465Z,71.33
2022-12-04T18:45:23.662Z,71.28
2022-12-04T18:47:50.336Z,71.35
2022-12-04T18:50:31.448Z,71.31
2022-12-04T18:53:05.433Z,71.04
2022-12-04T18:55:41.446Z,71.11
2022-12-04T18:58:16.793Z,70.96
2022-12-04T19:11:13.411Z,71.25
2022-12-04T19:13:55.452Z,71.29
2022-12-04T19:16:29.072Z,71.21
2022-12-04T19:19:03.449Z,71.29
2022-12-04T19:21:36.733Z,71.14
2022-12-04T19:37:52.852Z,71.12
2022-12-04T19:40:26.653Z,71.11
2022-12-04T19:43:03.246Z,71.03
2022-12-04T19:45:36.723Z,70.95
2022-12-04T19:48:11.508Z,70.87
2022-12-04T19:50:44.764Z,70.83
2022-12-04T19:53:19.441Z,71.06
2022-12-04T20:03:04.453Z,70.80
2022-12-04T20:05:45.220Z,70.65
2022-12-04T20:08:20.862Z,70.70
2022-12-04T20:10:54.413Z,70.71
2022-12-04T20:13:27.607Z,70.67
2022-12-04T20:16:09.566Z,70.38
2022-12-04T20:18:43.943Z,70.75
2022-12-04T20:31:37.419Z,70.52
2022-12-04T20:34:20.475Z,70.48
2022-12-04T20:36:53.644Z,70.46
2022-12-04T20:39:20.377Z,70.70
2022-12-04T20:42:00.428Z,70.48
2022-12-04T20:58:37.399Z,70.54
2022-12-04T21:01:19.502Z,70.83
2022-12-04T21:03:53.418Z,70.71
2022-12-04T21:06:34.748Z,70.65
2022-12-04T21:09:13.491Z,70.61
2022-12-04T21:25:07.463Z,70.63
2022-12-04T21:27:40.643Z,70.68
2022-12-04T21:30:16.445Z,70.64
2022-12-04T21:32:49.688Z,70.57
2022-12-04T21:35:23.420Z,70.45
2022-12-04T21:37:56.606Z,70.54
2022-12-04T21:50:45.388Z,70.47
2022-12-04T21:53:25.416Z,70.60
2022-12-04T21:55:58.639Z,70.45
2022-12-04T21:58:32.431Z,70.68
2022-12-04T22:01:09.054Z,70.46
2022-12-04T22:03:49.432Z,70.52
2022-12-04T22:17:01.417Z,70.57
2022-12-04T22:19:36.063Z,70.48
2022-12-04T22:22:09.409Z,70.49
2022-12-04T22:24:42.770Z,70.61
2022-12-04T22:27:16.387Z,70.65
2022-12-04T22:29:50.947Z,70.76
2022-12-04T22:32:26.425Z,70.62
2022-12-04T22:45:36.401Z,70.62
2022-12-04T22:48:11.531Z,70.79
2022-12-04T22:50:49.408Z,70.71
2022-12-04T22:53:41.471Z,70.51
2022-12-04T22:56:25.416Z,70.59
2022-12-04T22:58:59.939Z,70.94
2022-12-04T23:11:51.368Z,70.69
2022-12-04T23:14:32.108Z,70.93
2022-12-04T23:17:05.698Z,70.77
2022-12-04T23:19:39.379Z,70.71
2022-12-04T23:22:12.564Z,71.03
2022-12-04T23:38:27.399Z,71.55
2022-12-04T23:41:01.949Z,71.65
2022-12-04T23:43:35.429Z,71.69
2022-12-04T23:46:11.556Z,71.67
2022-12-04T23:48:47.402Z,71.33
2022-12-04T23:51:21.240Z,71.51
2022-12-04T23:53:57.408Z,71.51
